Quinwood, West Virginia
Current Conditions -  °F | °C
As of 11:15 AM on Friday 24 Oct 2014 (Local Time) from KLWB Reporting Station
Clear Clear  
Wind Chill: 51°   Ceiling: Unl
Heat Index: 51°   Visibility: 10mi
Dew Point: 43°   Wind: 3mph
Humidity: 72%   Direction: 190°S
Pressure: 30.1"   Gusts: NA
Location:  38.06°N, 80.71°W
Report Text: KLWB 241515Z AUTO 19003KT 10SM CLR 11/06 A3010 RMK AO2 T01080060
Loading
Personal Weather Stations






























Interactive Weather Map
Tropical Storm Tracking
New forecast layout! Learn more

10-Day Weather Forecast

Advertisements
Track Severe Weather on mobile